sensor_id;sensor_type;location;lat;lon;timestamp;temperature;humidity
22416;DHT22;12204;50.600;4.608;2023-03-17T00:02:51;17.70;71.30
22416;DHT22;12204;50.600;4.608;2023-03-17T00:08:00;17.70;71.30
22416;DHT22;12204;50.600;4.608;2023-03-17T00:13:10;17.70;71.30
22416;DHT22;12204;50.600;4.608;2023-03-17T00:18:17;17.70;71.40
22416;DHT22;12204;50.600;4.608;2023-03-17T00:23:23;17.70;71.30
22416;DHT22;12204;50.600;4.608;2023-03-17T00:28:27;17.70;71.40
22416;DHT22;12204;50.600;4.608;2023-03-17T00:33:32;17.60;71.30
22416;DHT22;12204;50.600;4.608;2023-03-17T00:38:39;17.60;71.30
22416;DHT22;12204;50.600;4.608;2023-03-17T00:43:43;17.70;71.30
22416;DHT22;12204;50.600;4.608;2023-03-17T00:48:47;17.70;71.30
22416;DHT22;12204;50.600;4.608;2023-03-17T00:53:52;17.70;72.10
22416;DHT22;12204;50.600;4.608;2023-03-17T00:58:55;17.70;71.40
22416;DHT22;12204;50.600;4.608;2023-03-17T01:03:58;17.70;71.40
22416;DHT22;12204;50.600;4.608;2023-03-17T01:09:04;17.70;71.40
22416;DHT22;12204;50.600;4.608;2023-03-17T01:14:10;17.70;71.30
22416;DHT22;12204;50.600;4.608;2023-03-17T01:19:14;17.70;71.40
22416;DHT22;12204;50.600;4.608;2023-03-17T01:24:19;17.60;71.30
22416;DHT22;12204;50.600;4.608;2023-03-17T01:29:23;17.60;71.30
22416;DHT22;12204;50.600;4.608;2023-03-17T01:34:27;17.60;71.40
22416;DHT22;12204;50.600;4.608;2023-03-17T01:39:32;17.70;71.40
22416;DHT22;12204;50.600;4.608;2023-03-17T01:44:57;17.70;71.40
22416;DHT22;12204;50.600;4.608;2023-03-17T01:50:06;17.70;71.40
22416;DHT22;12204;50.600;4.608;2023-03-17T01:55:15;17.70;71.40
22416;DHT22;12204;50.600;4.608;2023-03-17T02:00:21;17.60;71.40
22416;DHT22;12204;50.600;4.608;2023-03-17T02:05:28;17.70;71.40
22416;DHT22;12204;50.600;4.608;2023-03-17T02:10:35;17.70;71.40
22416;DHT22;12204;50.600;4.608;2023-03-17T02:15:40;17.60;71.30
22416;DHT22;12204;50.600;4.608;2023-03-17T02:26:53;17.70;71.50
22416;DHT22;12204;50.600;4.608;2023-03-17T02:31:59;17.60;71.40
22416;DHT22;12204;50.600;4.608;2023-03-17T02:37:05;17.60;71.40
22416;DHT22;12204;50.600;4.608;2023-03-17T02:42:11;17.60;71.40
22416;DHT22;12204;50.600;4.608;2023-03-17T02:47:15;17.60;71.30
22416;DHT22;12204;50.600;4.608;2023-03-17T02:52:20;17.70;71.40
22416;DHT22;12204;50.600;4.608;2023-03-17T02:57:24;17.60;71.40
22416;DHT22;12204;50.600;4.608;2023-03-17T03:02:28;17.60;71.40
22416;DHT22;12204;50.600;4.608;2023-03-17T03:07:33;17.70;71.40
22416;DHT22;12204;50.600;4.608;2023-03-17T03:12:37;17.60;71.50
22416;DHT22;12204;50.600;4.608;2023-03-17T03:17:40;17.60;71.50
22416;DHT22;12204;50.600;4.608;2023-03-17T03:22:45;17.70;71.50
22416;DHT22;12204;50.600;4.608;2023-03-17T03:27:49;17.70;71.50
22416;DHT22;12204;50.600;4.608;2023-03-17T03:32:52;17.60;71.40
22416;DHT22;12204;50.600;4.608;2023-03-17T03:37:58;17.60;71.50
22416;DHT22;12204;50.600;4.608;2023-03-17T03:43:02;17.70;71.50
22416;DHT22;12204;50.600;4.608;2023-03-17T03:48:22;17.60;71.40
22416;DHT22;12204;50.600;4.608;2023-03-17T03:53:28;17.60;71.40
22416;DHT22;12204;50.600;4.608;2023-03-17T03:58:31;17.70;71.50
22416;DHT22;12204;50.600;4.608;2023-03-17T04:03:35;17.60;71.40
22416;DHT22;12204;50.600;4.608;2023-03-17T04:08:41;17.60;71.40
22416;DHT22;12204;50.600;4.608;2023-03-17T04:13:44;17.60;71.50
22416;DHT22;12204;50.600;4.608;2023-03-17T04:18:48;17.60;71.40
22416;DHT22;12204;50.600;4.608;2023-03-17T04:23:53;17.60;71.40
22416;DHT22;12204;50.600;4.608;2023-03-17T04:28:56;17.60;71.50
22416;DHT22;12204;50.600;4.608;2023-03-17T04:34:00;17.60;71.50
22416;DHT22;12204;50.600;4.608;2023-03-17T04:39:05;17.60;71.50
22416;DHT22;12204;50.600;4.608;2023-03-17T04:44:08;17.60;71.50
22416;DHT22;12204;50.600;4.608;2023-03-17T04:49:12;17.60;71.50
22416;DHT22;12204;50.600;4.608;2023-03-17T04:54:17;17.60;71.40
22416;DHT22;12204;50.600;4.608;2023-03-17T04:59:21;17.60;71.50
22416;DHT22;12204;50.600;4.608;2023-03-17T05:04:24;17.60;71.50
22416;DHT22;12204;50.600;4.608;2023-03-17T05:09:34;17.60;71.50
22416;DHT22;12204;50.600;4.608;2023-03-17T05:14:38;17.60;71.40
22416;DHT22;12204;50.600;4.608;2023-03-17T05:19:42;17.60;71.40
22416;DHT22;12204;50.600;4.608;2023-03-17T05:24:47;17.60;71.40
22416;DHT22;12204;50.600;4.608;2023-03-17T05:29:51;17.60;71.50
22416;DHT22;12204;50.600;4.608;2023-03-17T05:34:54;17.60;71.40
22416;DHT22;12204;50.600;4.608;2023-03-17T05:39:59;17.60;71.50
22416;DHT22;12204;50.600;4.608;2023-03-17T05:45:04;17.60;71.40
22416;DHT22;12204;50.600;4.608;2023-03-17T05:50:10;17.60;71.50
22416;DHT22;12204;50.600;4.608;2023-03-17T05:55:16;17.60;71.50
22416;DHT22;12204;50.600;4.608;2023-03-17T06:00:22;17.60;71.50
22416;DHT22;12204;50.600;4.608;2023-03-17T06:05:26;17.60;71.50
22416;DHT22;12204;50.600;4.608;2023-03-17T06:10:31;17.60;71.60
22416;DHT22;12204;50.600;4.608;2023-03-17T06:15:35;17.60;71.50
22416;DHT22;12204;50.600;4.608;2023-03-17T06:20:39;17.60;71.50
22416;DHT22;12204;50.600;4.608;2023-03-17T06:25:44;17.60;71.50
22416;DHT22;12204;50.600;4.608;2023-03-17T06:30:48;17.60;71.50
22416;DHT22;12204;50.600;4.608;2023-03-17T06:35:52;17.60;72.20
22416;DHT22;12204;50.600;4.608;2023-03-17T06:40:57;17.60;71.50
22416;DHT22;12204;50.600;4.608;2023-03-17T06:46:00;17.60;71.50
22416;DHT22;12204;50.600;4.608;2023-03-17T06:51:04;17.60;71.50
22416;DHT22;12204;50.600;4.608;2023-03-17T06:56:10;17.60;71.50
22416;DHT22;12204;50.600;4.608;2023-03-17T07:01:30;17.60;71.50
22416;DHT22;12204;50.600;4.608;2023-03-17T07:06:34;17.60;71.50
22416;DHT22;12204;50.600;4.608;2023-03-17T07:11:39;17.60;71.50
22416;DHT22;12204;50.600;4.608;2023-03-17T07:16:43;17.60;71.50
22416;DHT22;12204;50.600;4.608;2023-03-17T07:21:47;17.60;71.50
22416;DHT22;12204;50.600;4.608;2023-03-17T07:26:51;17.60;71.50
22416;DHT22;12204;50.600;4.608;2023-03-17T07:31:55;17.60;71.50
22416;DHT22;12204;50.600;4.608;2023-03-17T07:36:58;17.60;71.40
22416;DHT22;12204;50.600;4.608;2023-03-17T07:42:04;17.60;71.50
22416;DHT22;12204;50.600;4.608;2023-03-17T07:47:09;17.70;71.50
22416;DHT22;12204;50.600;4.608;2023-03-17T07:52:14;17.60;71.40
22416;DHT22;12204;50.600;4.608;2023-03-17T07:57:19;17.70;71.50
22416;DHT22;12204;50.600;4.608;2023-03-17T08:02:23;17.70;71.40
22416;DHT22;12204;50.600;4.608;2023-03-17T08:07:27;17.70;71.40
22416;DHT22;12204;50.600;4.608;2023-03-17T08:12:33;17.70;71.50
22416;DHT22;12204;50.600;4.608;2023-03-17T08:17:37;17.70;71.40
22416;DHT22;12204;50.600;4.608;2023-03-17T08:22:42;17.70;71.40
22416;DHT22;12204;50.600;4.608;2023-03-17T08:27:47;17.70;71.50
22416;DHT22;12204;50.600;4.608;2023-03-17T08:32:51;17.70;71.50
22416;DHT22;12204;50.600;4.608;2023-03-17T08:37:55;17.70;71.50
22416;DHT22;12204;50.600;4.608;2023-03-17T08:43:00;17.70;71.50
22416;DHT22;12204;50.600;4.608;2023-03-17T08:48:04;17.70;71.50
22416;DHT22;12204;50.600;4.608;2023-03-17T08:53:08;17.70;71.50
22416;DHT22;12204;50.600;4.608;2023-03-17T08:58:13;17.70;71.40
22416;DHT22;12204;50.600;4.608;2023-03-17T09:03:16;17.70;71.40
22416;DHT22;12204;50.600;4.608;2023-03-17T09:08:21;17.70;71.40
22416;DHT22;12204;50.600;4.608;2023-03-17T09:13:27;17.70;71.40
22416;DHT22;12204;50.600;4.608;2023-03-17T09:18:30;17.70;71.40
22416;DHT22;12204;50.600;4.608;2023-03-17T09:23:34;17.70;71.30
22416;DHT22;12204;50.600;4.608;2023-03-17T09:28:39;17.70;71.30
22416;DHT22;12204;50.600;4.608;2023-03-17T09:33:43;17.70;71.30
22416;DHT22;12204;50.600;4.608;2023-03-17T09:38:48;17.70;71.20
22416;DHT22;12204;50.600;4.608;2023-03-17T09:43:57;17.70;71.30
22416;DHT22;12204;50.600;4.608;2023-03-17T09:49:08;17.80;71.30
22416;DHT22;12204;50.600;4.608;2023-03-17T09:54:19;17.80;71.20
22416;DHT22;12204;50.600;4.608;2023-03-17T09:59:32;17.80;71.10
22416;DHT22;12204;50.600;4.608;2023-03-17T10:04:37;17.80;71.10
22416;DHT22;12204;50.600;4.608;2023-03-17T10:09:47;17.80;71.10
22416;DHT22;12204;50.600;4.608;2023-03-17T10:15:02;17.80;71.10
22416;DHT22;12204;50.600;4.608;2023-03-17T10:20:13;17.80;71.10
22416;DHT22;12204;50.600;4.608;2023-03-17T10:25:21;17.80;71.10
22416;DHT22;12204;50.600;4.608;2023-03-17T10:30:30;17.80;71.00
22416;DHT22;12204;50.600;4.608;2023-03-17T10:35:36;17.80;71.00
22416;DHT22;12204;50.600;4.608;2023-03-17T10:40:42;17.90;71.10
22416;DHT22;12204;50.600;4.608;2023-03-17T10:46:00;17.90;71.10
22416;DHT22;12204;50.600;4.608;2023-03-17T10:51:07;17.90;71.10
22416;DHT22;12204;50.600;4.608;2023-03-17T10:56:22;17.90;71.10
22416;DHT22;12204;50.600;4.608;2023-03-17T11:01:35;17.90;71.10
22416;DHT22;12204;50.600;4.608;2023-03-17T11:06:41;17.90;71.10
22416;DHT22;12204;50.600;4.608;2023-03-17T11:12:00;17.90;71.10
22416;DHT22;12204;50.600;4.608;2023-03-17T11:17:16;17.90;71.20
22416;DHT22;12204;50.600;4.608;2023-03-17T11:22:28;17.90;71.20
22416;DHT22;12204;50.600;4.608;2023-03-17T11:27:40;17.90;71.20
22416;DHT22;12204;50.600;4.608;2023-03-17T11:32:54;18.00;71.30
22416;DHT22;12204;50.600;4.608;2023-03-17T11:38:18;17.90;71.20
22416;DHT22;12204;50.600;4.608;2023-03-17T11:43:30;18.00;71.40
22416;DHT22;12204;50.600;4.608;2023-03-17T11:48:44;18.00;71.30
22416;DHT22;12204;50.600;4.608;2023-03-17T11:54:02;17.90;71.40
22416;DHT22;12204;50.600;4.608;2023-03-17T11:59:17;18.00;71.40
22416;DHT22;12204;50.600;4.608;2023-03-17T12:04:33;18.00;71.50
22416;DHT22;12204;50.600;4.608;2023-03-17T12:09:42;18.00;71.60
22416;DHT22;12204;50.600;4.608;2023-03-17T12:14:49;18.00;71.50
22416;DHT22;12204;50.600;4.608;2023-03-17T12:20:03;18.00;71.50
22416;DHT22;12204;50.600;4.608;2023-03-17T12:25:21;18.00;71.50
22416;DHT22;12204;50.600;4.608;2023-03-17T12:30:31;18.00;71.50
22416;DHT22;12204;50.600;4.608;2023-03-17T12:35:43;18.00;71.50
22416;DHT22;12204;50.600;4.608;2023-03-17T12:47:06;18.00;71.50
22416;DHT22;12204;50.600;4.608;2023-03-17T12:52:39;18.00;71.60
22416;DHT22;12204;50.600;4.608;2023-03-17T12:57:58;18.00;71.60
22416;DHT22;12204;50.600;4.608;2023-03-17T13:03:13;18.10;71.80
22416;DHT22;12204;50.600;4.608;2023-03-17T13:08:29;18.10;71.70
22416;DHT22;12204;50.600;4.608;2023-03-17T13:13:40;18.10;71.70
22416;DHT22;12204;50.600;4.608;2023-03-17T13:18:49;18.10;71.70
22416;DHT22;12204;50.600;4.608;2023-03-17T13:24:35;18.10;71.70
22416;DHT22;12204;50.600;4.608;2023-03-17T13:29:47;18.10;71.70
22416;DHT22;12204;50.600;4.608;2023-03-17T13:34:53;18.10;71.80
22416;DHT22;12204;50.600;4.608;2023-03-17T13:40:18;18.10;71.80
22416;DHT22;12204;50.600;4.608;2023-03-17T13:45:37;18.10;71.90
22416;DHT22;12204;50.600;4.608;2023-03-17T13:50:42;18.10;71.80
22416;DHT22;12204;50.600;4.608;2023-03-17T14:01:21;18.10;71.80
22416;DHT22;12204;50.600;4.608;2023-03-17T14:06:27;18.10;71.80
22416;DHT22;12204;50.600;4.608;2023-03-17T14:11:34;18.10;71.80
22416;DHT22;12204;50.600;4.608;2023-03-17T14:16:45;18.10;71.80
22416;DHT22;12204;50.600;4.608;2023-03-17T14:22:01;18.10;71.80
22416;DHT22;12204;50.600;4.608;2023-03-17T14:27:06;18.10;71.80
22416;DHT22;12204;50.600;4.608;2023-03-17T14:32:18;18.10;71.80
22416;DHT22;12204;50.600;4.608;2023-03-17T14:37:24;18.10;71.80
22416;DHT22;12204;50.600;4.608;2023-03-17T14:42:30;18.10;71.80
22416;DHT22;12204;50.600;4.608;2023-03-17T14:47:38;18.10;71.90
22416;DHT22;12204;50.600;4.608;2023-03-17T14:52:44;18.10;71.80
22416;DHT22;12204;50.600;4.608;2023-03-17T14:57:49;18.10;71.80
22416;DHT22;12204;50.600;4.608;2023-03-17T15:02:57;18.10;71.80
22416;DHT22;12204;50.600;4.608;2023-03-17T15:08:27;18.20;71.80
22416;DHT22;12204;50.600;4.608;2023-03-17T15:13:49;18.10;71.70
22416;DHT22;12204;50.600;4.608;2023-03-17T15:19:05;18.20;71.80
22416;DHT22;12204;50.600;4.608;2023-03-17T15:24:25;18.10;71.80
22416;DHT22;12204;50.600;4.608;2023-03-17T15:29:35;18.10;71.80
22416;DHT22;12204;50.600;4.608;2023-03-17T15:34:39;18.10;71.90
22416;DHT22;12204;50.600;4.608;2023-03-17T15:39:43;18.20;71.90
22416;DHT22;12204;50.600;4.608;2023-03-17T15:44:47;18.10;71.90
22416;DHT22;12204;50.600;4.608;2023-03-17T15:49:56;18.10;71.90
22416;DHT22;12204;50.600;4.608;2023-03-17T15:55:00;18.10;71.90
22416;DHT22;12204;50.600;4.608;2023-03-17T16:00:08;18.10;72.00
22416;DHT22;12204;50.600;4.608;2023-03-17T16:05:21;18.10;71.90
22416;DHT22;12204;50.600;4.608;2023-03-17T16:10:28;18.10;71.90
22416;DHT22;12204;50.600;4.608;2023-03-17T16:15:36;18.20;72.00
22416;DHT22;12204;50.600;4.608;2023-03-17T16:20:44;18.20;72.10
22416;DHT22;12204;50.600;4.608;2023-03-17T16:25:49;18.20;72.10
22416;DHT22;12204;50.600;4.608;2023-03-17T16:30:57;18.20;72.20
22416;DHT22;12204;50.600;4.608;2023-03-17T16:36:04;18.20;72.10
22416;DHT22;12204;50.600;4.608;2023-03-17T16:41:14;18.10;72.10
22416;DHT22;12204;50.600;4.608;2023-03-17T16:46:21;18.20;72.10
22416;DHT22;12204;50.600;4.608;2023-03-17T16:51:26;18.20;72.30
22416;DHT22;12204;50.600;4.608;2023-03-17T16:56:30;18.20;72.10
22416;DHT22;12204;50.600;4.608;2023-03-17T17:01:33;18.10;72.20
22416;DHT22;12204;50.600;4.608;2023-03-17T17:06:38;18.10;72.10
22416;DHT22;12204;50.600;4.608;2023-03-17T17:11:41;18.10;72.20
22416;DHT22;12204;50.600;4.608;2023-03-17T17:16:45;18.10;72.20
22416;DHT22;12204;50.600;4.608;2023-03-17T17:21:50;18.10;72.20
22416;DHT22;12204;50.600;4.608;2023-03-17T17:26:53;18.20;72.40
22416;DHT22;12204;50.600;4.608;2023-03-17T17:31:56;18.20;72.30
22416;DHT22;12204;50.600;4.608;2023-03-17T17:37:01;18.10;72.30
22416;DHT22;12204;50.600;4.608;2023-03-17T17:42:07;18.10;72.30
22416;DHT22;12204;50.600;4.608;2023-03-17T17:47:12;18.10;73.10
22416;DHT22;12204;50.600;4.608;2023-03-17T17:52:18;18.10;72.30
22416;DHT22;12204;50.600;4.608;2023-03-17T17:57:21;18.10;72.30
22416;DHT22;12204;50.600;4.608;2023-03-17T18:02:25;18.10;72.30
22416;DHT22;12204;50.600;4.608;2023-03-17T18:07:30;18.10;72.40
22416;DHT22;12204;50.600;4.608;2023-03-17T18:12:33;18.10;72.40
22416;DHT22;12204;50.600;4.608;2023-03-17T18:17:37;18.10;72.40
22416;DHT22;12204;50.600;4.608;2023-03-17T18:22:42;18.10;72.40
22416;DHT22;12204;50.600;4.608;2023-03-17T18:27:46;18.10;72.40
22416;DHT22;12204;50.600;4.608;2023-03-17T18:32:52;18.10;72.40
22416;DHT22;12204;50.600;4.608;2023-03-17T18:38:00;18.10;72.40
22416;DHT22;12204;50.600;4.608;2023-03-17T18:43:04;18.10;72.40
22416;DHT22;12204;50.600;4.608;2023-03-17T18:48:07;18.10;72.40
22416;DHT22;12204;50.600;4.608;2023-03-17T18:53:12;18.10;72.40
22416;DHT22;12204;50.600;4.608;2023-03-17T18:58:15;18.10;72.40
22416;DHT22;12204;50.600;4.608;2023-03-17T19:03:19;18.10;72.40
22416;DHT22;12204;50.600;4.608;2023-03-17T19:08:24;18.10;72.40
22416;DHT22;12204;50.600;4.608;2023-03-17T19:13:27;18.10;72.40
22416;DHT22;12204;50.600;4.608;2023-03-17T19:18:31;18.10;72.40
22416;DHT22;12204;50.600;4.608;2023-03-17T19:23:36;18.10;72.50
22416;DHT22;12204;50.600;4.608;2023-03-17T19:28:40;18.10;72.50
22416;DHT22;12204;50.600;4.608;2023-03-17T19:33:43;18.10;72.50
22416;DHT22;12204;50.600;4.608;2023-03-17T19:38:48;18.10;72.50
22416;DHT22;12204;50.600;4.608;2023-03-17T19:43:52;18.10;72.50
22416;DHT22;12204;50.600;4.608;2023-03-17T19:48:55;18.10;72.50
22416;DHT22;12204;50.600;4.608;2023-03-17T19:54:00;18.10;72.50
22416;DHT22;12204;50.600;4.608;2023-03-17T19:59:06;18.10;72.60
22416;DHT22;12204;50.600;4.608;2023-03-17T20:04:10;18.10;72.60
22416;DHT22;12204;50.600;4.608;2023-03-17T20:09:20;18.10;72.60
22416;DHT22;12204;50.600;4.608;2023-03-17T20:14:25;18.10;72.60
22416;DHT22;12204;50.600;4.608;2023-03-17T20:19:28;18.10;72.60
22416;DHT22;12204;50.600;4.608;2023-03-17T20:24:35;18.10;72.60
22416;DHT22;12204;50.600;4.608;2023-03-17T20:29:39;18.10;72.70
22416;DHT22;12204;50.600;4.608;2023-03-17T20:34:43;18.10;72.60
22416;DHT22;12204;50.600;4.608;2023-03-17T20:39:48;18.10;72.60
22416;DHT22;12204;50.600;4.608;2023-03-17T20:44:53;18.10;72.70
22416;DHT22;12204;50.600;4.608;2023-03-17T20:49:57;18.10;72.60
22416;DHT22;12204;50.600;4.608;2023-03-17T20:55:03;18.10;72.70
22416;DHT22;12204;50.600;4.608;2023-03-17T21:00:10;18.10;72.80
22416;DHT22;12204;50.600;4.608;2023-03-17T21:05:20;18.10;72.70
22416;DHT22;12204;50.600;4.608;2023-03-17T21:10:27;18.10;72.80
22416;DHT22;12204;50.600;4.608;2023-03-17T21:15:31;18.10;72.80
22416;DHT22;12204;50.600;4.608;2023-03-17T21:20:35;18.10;72.80
22416;DHT22;12204;50.600;4.608;2023-03-17T21:25:39;18.10;72.80
22416;DHT22;12204;50.600;4.608;2023-03-17T21:30:44;18.10;72.80
22416;DHT22;12204;50.600;4.608;2023-03-17T21:35:47;18.10;72.80
22416;DHT22;12204;50.600;4.608;2023-03-17T21:40:52;18.10;72.80
22416;DHT22;12204;50.600;4.608;2023-03-17T21:45:56;18.10;72.90
22416;DHT22;12204;50.600;4.608;2023-03-17T21:50:59;18.10;72.90
22416;DHT22;12204;50.600;4.608;2023-03-17T21:56:05;18.10;72.90
22416;DHT22;12204;50.600;4.608;2023-03-17T22:01:10;18.10;72.90
22416;DHT22;12204;50.600;4.608;2023-03-17T22:06:15;18.10;73.00
22416;DHT22;12204;50.600;4.608;2023-03-17T22:11:21;18.10;73.00
22416;DHT22;12204;50.600;4.608;2023-03-17T22:16:25;18.10;73.00
22416;DHT22;12204;50.600;4.608;2023-03-17T22:21:28;18.10;73.00
22416;DHT22;12204;50.600;4.608;2023-03-17T22:26:34;18.10;73.00
22416;DHT22;12204;50.600;4.608;2023-03-17T22:31:37;18.20;73.10
22416;DHT22;12204;50.600;4.608;2023-03-17T22:36:42;18.10;73.10
22416;DHT22;12204;50.600;4.608;2023-03-17T22:41:46;18.10;73.10
22416;DHT22;12204;50.600;4.608;2023-03-17T22:46:50;18.10;73.10
22416;DHT22;12204;50.600;4.608;2023-03-17T22:51:53;18.10;73.10
22416;DHT22;12204;50.600;4.608;2023-03-17T22:56:58;18.10;73.10
22416;DHT22;12204;50.600;4.608;2023-03-17T23:02:02;18.10;73.10
22416;DHT22;12204;50.600;4.608;2023-03-17T23:07:05;18.20;73.20
22416;DHT22;12204;50.600;4.608;2023-03-17T23:12:11;18.10;73.20
22416;DHT22;12204;50.600;4.608;2023-03-17T23:17:14;18.10;73.30
22416;DHT22;12204;50.600;4.608;2023-03-17T23:22:18;18.10;73.20
22416;DHT22;12204;50.600;4.608;2023-03-17T23:27:23;18.10;73.20
22416;DHT22;12204;50.600;4.608;2023-03-17T23:32:27;18.10;73.30
22416;DHT22;12204;50.600;4.608;2023-03-17T23:37:30;18.10;73.30
22416;DHT22;12204;50.600;4.608;2023-03-17T23:42:35;18.10;73.30
22416;DHT22;12204;50.600;4.608;2023-03-17T23:47:49;18.10;73.30
22416;DHT22;12204;50.600;4.608;2023-03-17T23:52:54;18.10;73.30
22416;DHT22;12204;50.600;4.608;2023-03-17T23:57:59;18.10;73.30
